sensor_id;sensor_type;location;lat;lon;timestamp;P1;durP1;ratioP1;P2;durP2;ratioP2
20230;SDS011;10274;49.022;9.338;2023-02-08T00:02:00;5.90;;;4.00;;
20230;SDS011;10274;49.022;9.338;2023-02-08T00:04:27;8.17;;;4.13;;
20230;SDS011;10274;49.022;9.338;2023-02-08T00:06:55;6.13;;;3.80;;
20230;SDS011;10274;49.022;9.338;2023-02-08T00:09:21;5.37;;;3.60;;
20230;SDS011;10274;49.022;9.338;2023-02-08T00:11:48;7.03;;;4.20;;
20230;SDS011;10274;49.022;9.338;2023-02-08T00:14:15;4.50;;;3.73;;
20230;SDS011;10274;49.022;9.338;2023-02-08T00:16:42;5.13;;;3.60;;
20230;SDS011;10274;49.022;9.338;2023-02-08T00:19:08;6.37;;;3.63;;
20230;SDS011;10274;49.022;9.338;2023-02-08T00:21:35;6.70;;;4.57;;
20230;SDS011;10274;49.022;9.338;2023-02-08T00:24:03;4.70;;;2.93;;
20230;SDS011;10274;49.022;9.338;2023-02-08T00:26:30;7.63;;;4.10;;
20230;SDS011;10274;49.022;9.338;2023-02-08T00:28:57;5.43;;;3.70;;
20230;SDS011;10274;49.022;9.338;2023-02-08T00:31:23;6.27;;;3.27;;
20230;SDS011;10274;49.022;9.338;2023-02-08T00:33:50;4.20;;;3.07;;
20230;SDS011;10274;49.022;9.338;2023-02-08T00:36:17;4.97;;;3.60;;
20230;SDS011;10274;49.022;9.338;2023-02-08T00:38:43;5.83;;;3.53;;
20230;SDS011;10274;49.022;9.338;2023-02-08T00:41:11;4.80;;;3.50;;
20230;SDS011;10274;49.022;9.338;2023-02-08T00:43:38;3.23;;;2.63;;
20230;SDS011;10274;49.022;9.338;2023-02-08T00:46:05;4.27;;;2.87;;
20230;SDS011;10274;49.022;9.338;2023-02-08T00:48:33;4.73;;;3.00;;
20230;SDS011;10274;49.022;9.338;2023-02-08T00:51:03;6.40;;;3.17;;
20230;SDS011;10274;49.022;9.338;2023-02-08T00:53:34;5.30;;;3.17;;
20230;SDS011;10274;49.022;9.338;2023-02-08T00:56:02;4.43;;;2.90;;
20230;SDS011;10274;49.022;9.338;2023-02-08T00:58:30;4.90;;;3.23;;
20230;SDS011;10274;49.022;9.338;2023-02-08T01:00:57;5.03;;;2.60;;
20230;SDS011;10274;49.022;9.338;2023-02-08T01:03:24;5.60;;;3.60;;
20230;SDS011;10274;49.022;9.338;2023-02-08T01:05:51;4.03;;;3.00;;
20230;SDS011;10274;49.022;9.338;2023-02-08T01:08:17;6.13;;;3.23;;
20230;SDS011;10274;49.022;9.338;2023-02-08T01:10:45;4.40;;;3.33;;
20230;SDS011;10274;49.022;9.338;2023-02-08T01:13:12;4.87;;;3.40;;
20230;SDS011;10274;49.022;9.338;2023-02-08T01:15:40;5.40;;;3.87;;
20230;SDS011;10274;49.022;9.338;2023-02-08T01:18:07;4.20;;;3.67;;
20230;SDS011;10274;49.022;9.338;2023-02-08T01:20:34;4.57;;;3.27;;
20230;SDS011;10274;49.022;9.338;2023-02-08T01:23:02;4.43;;;3.40;;
20230;SDS011;10274;49.022;9.338;2023-02-08T01:25:29;7.37;;;4.23;;
20230;SDS011;10274;49.022;9.338;2023-02-08T01:27:56;4.87;;;3.80;;
20230;SDS011;10274;49.022;9.338;2023-02-08T01:30:23;3.50;;;2.87;;
20230;SDS011;10274;49.022;9.338;2023-02-08T01:32:51;5.30;;;3.83;;
20230;SDS011;10274;49.022;9.338;2023-02-08T01:35:17;5.20;;;3.33;;
20230;SDS011;10274;49.022;9.338;2023-02-08T01:37:44;5.77;;;3.60;;
20230;SDS011;10274;49.022;9.338;2023-02-08T01:40:11;5.53;;;3.53;;
20230;SDS011;10274;49.022;9.338;2023-02-08T01:42:37;6.40;;;3.87;;
20230;SDS011;10274;49.022;9.338;2023-02-08T01:45:18;5.07;;;3.27;;
20230;SDS011;10274;49.022;9.338;2023-02-08T01:47:51;5.40;;;3.23;;
20230;SDS011;10274;49.022;9.338;2023-02-08T01:50:21;5.40;;;3.63;;
20230;SDS011;10274;49.022;9.338;2023-02-08T01:52:51;4.70;;;3.70;;
20230;SDS011;10274;49.022;9.338;2023-02-08T01:55:19;4.03;;;3.13;;
20230;SDS011;10274;49.022;9.338;2023-02-08T01:57:48;3.73;;;3.07;;
20230;SDS011;10274;49.022;9.338;2023-02-08T02:00:19;4.47;;;3.40;;
20230;SDS011;10274;49.022;9.338;2023-02-08T02:02:47;5.10;;;3.13;;
20230;SDS011;10274;49.022;9.338;2023-02-08T02:05:19;5.30;;;3.23;;
20230;SDS011;10274;49.022;9.338;2023-02-08T02:07:47;6.10;;;4.07;;
20230;SDS011;10274;49.022;9.338;2023-02-08T02:10:15;5.03;;;3.53;;
20230;SDS011;10274;49.022;9.338;2023-02-08T02:12:45;4.23;;;2.63;;
20230;SDS011;10274;49.022;9.338;2023-02-08T02:15:12;4.87;;;3.57;;
20230;SDS011;10274;49.022;9.338;2023-02-08T02:17:39;5.17;;;3.43;;
20230;SDS011;10274;49.022;9.338;2023-02-08T02:20:10;5.53;;;3.40;;
20230;SDS011;10274;49.022;9.338;2023-02-08T02:26:09;5.43;;;3.67;;
20230;SDS011;10274;49.022;9.338;2023-02-08T02:29:14;5.57;;;3.60;;
20230;SDS011;10274;49.022;9.338;2023-02-08T02:32:05;4.57;;;3.27;;
20230;SDS011;10274;49.022;9.338;2023-02-08T02:34:39;7.13;;;3.77;;
20230;SDS011;10274;49.022;9.338;2023-02-08T02:37:11;6.13;;;2.80;;
20230;SDS011;10274;49.022;9.338;2023-02-08T02:39:52;4.63;;;3.30;;
20230;SDS011;10274;49.022;9.338;2023-02-08T02:42:26;5.60;;;3.67;;
20230;SDS011;10274;49.022;9.338;2023-02-08T02:45:19;7.70;;;4.37;;
20230;SDS011;10274;49.022;9.338;2023-02-08T02:47:57;4.97;;;2.93;;
20230;SDS011;10274;49.022;9.338;2023-02-08T02:50:29;5.73;;;3.57;;
20230;SDS011;10274;49.022;9.338;2023-02-08T02:53:00;4.97;;;3.37;;
20230;SDS011;10274;49.022;9.338;2023-02-08T02:55:32;4.70;;;3.17;;
20230;SDS011;10274;49.022;9.338;2023-02-08T02:58:04;5.43;;;3.60;;
20230;SDS011;10274;49.022;9.338;2023-02-08T03:00:35;6.93;;;4.23;;
20230;SDS011;10274;49.022;9.338;2023-02-08T03:03:03;4.77;;;3.63;;
20230;SDS011;10274;49.022;9.338;2023-02-08T03:05:31;7.03;;;4.23;;
20230;SDS011;10274;49.022;9.338;2023-02-08T03:08:06;5.80;;;3.73;;
20230;SDS011;10274;49.022;9.338;2023-02-08T03:11:09;5.03;;;3.40;;
20230;SDS011;10274;49.022;9.338;2023-02-08T03:13:47;6.37;;;3.73;;
20230;SDS011;10274;49.022;9.338;2023-02-08T03:16:29;7.23;;;3.90;;
20230;SDS011;10274;49.022;9.338;2023-02-08T03:19:04;5.37;;;3.27;;
20230;SDS011;10274;49.022;9.338;2023-02-08T03:21:37;5.23;;;3.83;;
20230;SDS011;10274;49.022;9.338;2023-02-08T03:24:09;6.30;;;3.70;;
20230;SDS011;10274;49.022;9.338;2023-02-08T03:26:48;5.93;;;4.07;;
20230;SDS011;10274;49.022;9.338;2023-02-08T03:29:21;4.77;;;3.97;;
20230;SDS011;10274;49.022;9.338;2023-02-08T03:31:56;4.63;;;3.73;;
20230;SDS011;10274;49.022;9.338;2023-02-08T03:34:27;5.20;;;3.73;;
20230;SDS011;10274;49.022;9.338;2023-02-08T03:37:02;4.13;;;3.67;;
20230;SDS011;10274;49.022;9.338;2023-02-08T03:39:32;6.23;;;3.90;;
20230;SDS011;10274;49.022;9.338;2023-02-08T03:42:03;6.23;;;4.30;;
20230;SDS011;10274;49.022;9.338;2023-02-08T03:44:35;5.23;;;3.67;;
20230;SDS011;10274;49.022;9.338;2023-02-08T03:47:06;6.80;;;4.00;;
20230;SDS011;10274;49.022;9.338;2023-02-08T03:49:37;5.80;;;4.00;;
20230;SDS011;10274;49.022;9.338;2023-02-08T03:52:07;6.80;;;4.30;;
20230;SDS011;10274;49.022;9.338;2023-02-08T03:54:37;6.63;;;3.53;;
20230;SDS011;10274;49.022;9.338;2023-02-08T03:57:09;6.70;;;4.33;;
20230;SDS011;10274;49.022;9.338;2023-02-08T03:59:41;7.90;;;4.17;;
20230;SDS011;10274;49.022;9.338;2023-02-08T04:02:13;5.03;;;4.03;;
20230;SDS011;10274;49.022;9.338;2023-02-08T04:04:45;6.87;;;4.23;;
20230;SDS011;10274;49.022;9.338;2023-02-08T04:07:15;6.40;;;4.43;;
20230;SDS011;10274;49.022;9.338;2023-02-08T04:09:42;5.70;;;4.30;;
20230;SDS011;10274;49.022;9.338;2023-02-08T04:12:09;5.87;;;4.83;;
20230;SDS011;10274;49.022;9.338;2023-02-08T04:14:36;7.47;;;5.10;;
20230;SDS011;10274;49.022;9.338;2023-02-08T04:17:03;7.47;;;4.63;;
20230;SDS011;10274;49.022;9.338;2023-02-08T04:19:29;6.67;;;4.67;;
20230;SDS011;10274;49.022;9.338;2023-02-08T04:21:57;7.50;;;4.00;;
20230;SDS011;10274;49.022;9.338;2023-02-08T04:24:24;6.40;;;4.50;;
20230;SDS011;10274;49.022;9.338;2023-02-08T04:26:51;5.90;;;4.50;;
20230;SDS011;10274;49.022;9.338;2023-02-08T04:29:17;6.73;;;4.37;;
20230;SDS011;10274;49.022;9.338;2023-02-08T04:31:44;6.60;;;4.50;;
20230;SDS011;10274;49.022;9.338;2023-02-08T04:34:11;5.33;;;3.73;;
20230;SDS011;10274;49.022;9.338;2023-02-08T04:36:37;5.10;;;3.37;;
20230;SDS011;10274;49.022;9.338;2023-02-08T04:39:05;7.37;;;4.17;;
20230;SDS011;10274;49.022;9.338;2023-02-08T04:41:32;7.93;;;4.63;;
20230;SDS011;10274;49.022;9.338;2023-02-08T04:43:59;6.43;;;3.40;;
20230;SDS011;10274;49.022;9.338;2023-02-08T04:46:25;5.77;;;3.93;;
20230;SDS011;10274;49.022;9.338;2023-02-08T04:48:52;6.37;;;3.53;;
20230;SDS011;10274;49.022;9.338;2023-02-08T04:51:19;7.33;;;4.30;;
20230;SDS011;10274;49.022;9.338;2023-02-08T04:53:45;4.63;;;3.23;;
20230;SDS011;10274;49.022;9.338;2023-02-08T04:56:14;7.23;;;4.27;;
20230;SDS011;10274;49.022;9.338;2023-02-08T04:58:40;4.83;;;3.20;;
20230;SDS011;10274;49.022;9.338;2023-02-08T05:01:07;10.73;;;4.40;;
20230;SDS011;10274;49.022;9.338;2023-02-08T05:03:35;5.57;;;4.00;;
20230;SDS011;10274;49.022;9.338;2023-02-08T05:06:02;7.70;;;4.10;;
20230;SDS011;10274;49.022;9.338;2023-02-08T05:08:28;5.40;;;3.73;;
20230;SDS011;10274;49.022;9.338;2023-02-08T05:10:55;6.43;;;4.00;;
20230;SDS011;10274;49.022;9.338;2023-02-08T05:13:23;3.73;;;2.63;;
20230;SDS011;10274;49.022;9.338;2023-02-08T05:15:50;7.00;;;4.00;;
20230;SDS011;10274;49.022;9.338;2023-02-08T05:18:16;6.50;;;4.27;;
20230;SDS011;10274;49.022;9.338;2023-02-08T05:20:43;6.03;;;3.93;;
20230;SDS011;10274;49.022;9.338;2023-02-08T05:23:10;4.57;;;3.70;;
20230;SDS011;10274;49.022;9.338;2023-02-08T05:25:36;6.20;;;3.97;;
20230;SDS011;10274;49.022;9.338;2023-02-08T05:28:04;6.57;;;3.70;;
20230;SDS011;10274;49.022;9.338;2023-02-08T05:30:32;6.87;;;3.60;;
20230;SDS011;10274;49.022;9.338;2023-02-08T05:32:59;4.33;;;2.97;;
20230;SDS011;10274;49.022;9.338;2023-02-08T05:35:25;8.27;;;4.07;;
20230;SDS011;10274;49.022;9.338;2023-02-08T05:37:52;6.50;;;3.87;;
20230;SDS011;10274;49.022;9.338;2023-02-08T05:40:19;4.50;;;3.63;;
20230;SDS011;10274;49.022;9.338;2023-02-08T05:42:45;6.10;;;3.50;;
20230;SDS011;10274;49.022;9.338;2023-02-08T05:45:12;7.30;;;3.73;;
20230;SDS011;10274;49.022;9.338;2023-02-08T05:47:40;8.77;;;4.17;;
20230;SDS011;10274;49.022;9.338;2023-02-08T05:50:07;6.43;;;3.70;;
20230;SDS011;10274;49.022;9.338;2023-02-08T05:52:34;5.00;;;2.70;;
20230;SDS011;10274;49.022;9.338;2023-02-08T05:55:01;6.77;;;3.50;;
20230;SDS011;10274;49.022;9.338;2023-02-08T05:57:28;5.10;;;3.80;;
20230;SDS011;10274;49.022;9.338;2023-02-08T05:59:54;4.00;;;3.00;;
20230;SDS011;10274;49.022;9.338;2023-02-08T06:02:21;4.63;;;3.03;;
20230;SDS011;10274;49.022;9.338;2023-02-08T06:04:49;7.60;;;3.60;;
20230;SDS011;10274;49.022;9.338;2023-02-08T06:07:16;4.57;;;3.53;;
20230;SDS011;10274;49.022;9.338;2023-02-08T06:09:42;5.40;;;3.90;;
20230;SDS011;10274;49.022;9.338;2023-02-08T06:12:09;5.07;;;3.43;;
20230;SDS011;10274;49.022;9.338;2023-02-08T06:14:36;7.53;;;4.00;;
20230;SDS011;10274;49.022;9.338;2023-02-08T06:17:02;7.93;;;3.43;;
20230;SDS011;10274;49.022;9.338;2023-02-08T06:19:29;4.13;;;3.20;;
20230;SDS011;10274;49.022;9.338;2023-02-08T06:21:57;6.30;;;3.40;;
20230;SDS011;10274;49.022;9.338;2023-02-08T06:24:23;5.37;;;3.90;;
20230;SDS011;10274;49.022;9.338;2023-02-08T06:26:50;4.90;;;3.20;;
20230;SDS011;10274;49.022;9.338;2023-02-08T06:29:17;4.63;;;3.07;;
20230;SDS011;10274;49.022;9.338;2023-02-08T06:31:44;4.60;;;3.30;;
20230;SDS011;10274;49.022;9.338;2023-02-08T06:34:10;5.00;;;3.57;;
20230;SDS011;10274;49.022;9.338;2023-02-08T06:36:37;3.93;;;3.13;;
20230;SDS011;10274;49.022;9.338;2023-02-08T06:39:05;7.77;;;3.43;;
20230;SDS011;10274;49.022;9.338;2023-02-08T06:41:32;4.00;;;2.97;;
20230;SDS011;10274;49.022;9.338;2023-02-08T06:43:58;5.80;;;3.50;;
20230;SDS011;10274;49.022;9.338;2023-02-08T06:46:26;6.30;;;3.57;;
20230;SDS011;10274;49.022;9.338;2023-02-08T06:48:52;5.40;;;3.53;;
20230;SDS011;10274;49.022;9.338;2023-02-08T06:51:21;4.87;;;3.37;;
20230;SDS011;10274;49.022;9.338;2023-02-08T06:53:48;5.47;;;2.73;;
20230;SDS011;10274;49.022;9.338;2023-02-08T06:56:16;5.70;;;3.67;;
20230;SDS011;10274;49.022;9.338;2023-02-08T06:58:43;6.43;;;3.67;;
20230;SDS011;10274;49.022;9.338;2023-02-08T07:01:10;6.37;;;3.50;;
20230;SDS011;10274;49.022;9.338;2023-02-08T07:03:38;6.90;;;4.07;;
20230;SDS011;10274;49.022;9.338;2023-02-08T07:06:05;6.30;;;3.97;;
20230;SDS011;10274;49.022;9.338;2023-02-08T07:08:36;6.43;;;3.93;;
20230;SDS011;10274;49.022;9.338;2023-02-08T07:11:05;4.30;;;3.27;;
20230;SDS011;10274;49.022;9.338;2023-02-08T07:13:34;6.03;;;3.80;;
20230;SDS011;10274;49.022;9.338;2023-02-08T07:16:01;6.23;;;4.03;;
20230;SDS011;10274;49.022;9.338;2023-02-08T07:18:27;5.43;;;3.67;;
20230;SDS011;10274;49.022;9.338;2023-02-08T07:20:54;6.23;;;4.10;;
20230;SDS011;10274;49.022;9.338;2023-02-08T07:23:21;5.37;;;3.47;;
20230;SDS011;10274;49.022;9.338;2023-02-08T07:25:54;7.77;;;4.07;;
20230;SDS011;10274;49.022;9.338;2023-02-08T07:28:22;5.27;;;3.40;;
20230;SDS011;10274;49.022;9.338;2023-02-08T07:30:50;4.87;;;3.40;;
20230;SDS011;10274;49.022;9.338;2023-02-08T07:33:17;7.67;;;4.40;;
20230;SDS011;10274;49.022;9.338;2023-02-08T07:35:44;6.50;;;4.23;;
20230;SDS011;10274;49.022;9.338;2023-02-08T07:38:10;6.43;;;4.10;;
20230;SDS011;10274;49.022;9.338;2023-02-08T07:40:37;6.00;;;3.47;;
20230;SDS011;10274;49.022;9.338;2023-02-08T07:43:04;5.40;;;3.73;;
20230;SDS011;10274;49.022;9.338;2023-02-08T07:45:30;5.90;;;3.67;;
20230;SDS011;10274;49.022;9.338;2023-02-08T07:47:59;7.20;;;3.97;;
20230;SDS011;10274;49.022;9.338;2023-02-08T07:50:25;8.37;;;4.07;;
20230;SDS011;10274;49.022;9.338;2023-02-08T07:52:52;6.63;;;4.53;;
20230;SDS011;10274;49.022;9.338;2023-02-08T07:55:19;7.40;;;4.20;;
20230;SDS011;10274;49.022;9.338;2023-02-08T07:57:46;6.40;;;3.53;;
20230;SDS011;10274;49.022;9.338;2023-02-08T08:00:14;5.37;;;4.67;;
20230;SDS011;10274;49.022;9.338;2023-02-08T08:02:42;5.43;;;4.00;;
20230;SDS011;10274;49.022;9.338;2023-02-08T08:05:10;6.13;;;3.67;;
20230;SDS011;10274;49.022;9.338;2023-02-08T08:07:37;6.23;;;4.33;;
20230;SDS011;10274;49.022;9.338;2023-02-08T08:10:04;4.73;;;3.50;;
20230;SDS011;10274;49.022;9.338;2023-02-08T08:12:31;6.27;;;3.30;;
20230;SDS011;10274;49.022;9.338;2023-02-08T08:14:58;5.30;;;3.37;;
20230;SDS011;10274;49.022;9.338;2023-02-08T08:17:24;5.20;;;3.33;;
20230;SDS011;10274;49.022;9.338;2023-02-08T08:19:51;4.53;;;2.83;;
20230;SDS011;10274;49.022;9.338;2023-02-08T08:22:19;4.63;;;3.07;;
20230;SDS011;10274;49.022;9.338;2023-02-08T08:24:46;4.43;;;2.77;;
20230;SDS011;10274;49.022;9.338;2023-02-08T08:27:12;5.00;;;2.90;;
20230;SDS011;10274;49.022;9.338;2023-02-08T08:29:39;2.80;;;2.47;;
20230;SDS011;10274;49.022;9.338;2023-02-08T08:32:06;2.80;;;2.43;;
20230;SDS011;10274;49.022;9.338;2023-02-08T08:34:33;3.27;;;2.17;;
20230;SDS011;10274;49.022;9.338;2023-02-08T08:37:00;3.90;;;3.20;;
20230;SDS011;10274;49.022;9.338;2023-02-08T08:39:29;3.20;;;2.50;;
20230;SDS011;10274;49.022;9.338;2023-02-08T08:41:56;4.57;;;2.60;;
20230;SDS011;10274;49.022;9.338;2023-02-08T08:44:23;4.13;;;2.13;;
20230;SDS011;10274;49.022;9.338;2023-02-08T08:46:52;4.57;;;2.90;;
20230;SDS011;10274;49.022;9.338;2023-02-08T08:49:20;4.20;;;3.03;;
20230;SDS011;10274;49.022;9.338;2023-02-08T08:51:46;4.53;;;2.93;;
20230;SDS011;10274;49.022;9.338;2023-02-08T08:54:13;3.17;;;2.03;;
20230;SDS011;10274;49.022;9.338;2023-02-08T08:56:41;3.63;;;2.77;;
20230;SDS011;10274;49.022;9.338;2023-02-08T08:59:08;6.17;;;3.07;;
20230;SDS011;10274;49.022;9.338;2023-02-08T09:01:34;4.97;;;2.87;;
20230;SDS011;10274;49.022;9.338;2023-02-08T09:04:01;3.20;;;2.83;;
20230;SDS011;10274;49.022;9.338;2023-02-08T09:06:28;3.03;;;2.27;;
20230;SDS011;10274;49.022;9.338;2023-02-08T09:08:54;4.07;;;3.03;;
20230;SDS011;10274;49.022;9.338;2023-02-08T09:11:21;4.63;;;2.87;;
20230;SDS011;10274;49.022;9.338;2023-02-08T09:13:49;4.70;;;2.70;;
20230;SDS011;10274;49.022;9.338;2023-02-08T09:16:17;4.60;;;2.53;;
20230;SDS011;10274;49.022;9.338;2023-02-08T09:18:44;2.70;;;2.20;;
20230;SDS011;10274;49.022;9.338;2023-02-08T09:21:12;2.93;;;2.17;;
20230;SDS011;10274;49.022;9.338;2023-02-08T09:23:40;3.13;;;2.67;;
20230;SDS011;10274;49.022;9.338;2023-02-08T09:26:09;3.63;;;2.33;;
20230;SDS011;10274;49.022;9.338;2023-02-08T09:28:37;3.63;;;2.53;;
20230;SDS011;10274;49.022;9.338;2023-02-08T09:31:09;3.10;;;2.10;;
20230;SDS011;10274;49.022;9.338;2023-02-08T09:33:37;4.33;;;2.20;;
20230;SDS011;10274;49.022;9.338;2023-02-08T09:36:04;4.33;;;2.67;;
20230;SDS011;10274;49.022;9.338;2023-02-08T09:38:32;3.37;;;2.60;;
20230;SDS011;10274;49.022;9.338;2023-02-08T09:41:01;3.17;;;2.17;;
20230;SDS011;10274;49.022;9.338;2023-02-08T09:43:37;3.83;;;2.63;;
20230;SDS011;10274;49.022;9.338;2023-02-08T09:46:14;3.43;;;2.43;;
20230;SDS011;10274;49.022;9.338;2023-02-08T09:48:42;6.17;;;2.83;;
20230;SDS011;10274;49.022;9.338;2023-02-08T09:51:14;3.50;;;2.63;;
20230;SDS011;10274;49.022;9.338;2023-02-08T09:53:50;3.43;;;2.60;;
20230;SDS011;10274;49.022;9.338;2023-02-08T09:56:23;4.53;;;2.80;;
20230;SDS011;10274;49.022;9.338;2023-02-08T09:58:53;4.27;;;2.53;;
20230;SDS011;10274;49.022;9.338;2023-02-08T10:01:23;2.53;;;2.10;;
20230;SDS011;10274;49.022;9.338;2023-02-08T10:03:54;2.00;;;1.73;;
20230;SDS011;10274;49.022;9.338;2023-02-08T10:06:26;2.53;;;2.00;;
20230;SDS011;10274;49.022;9.338;2023-02-08T10:08:54;2.07;;;1.90;;
20230;SDS011;10274;49.022;9.338;2023-02-08T10:11:24;3.03;;;2.33;;
20230;SDS011;10274;49.022;9.338;2023-02-08T10:14:13;2.17;;;1.93;;
20230;SDS011;10274;49.022;9.338;2023-02-08T10:17:01;2.63;;;2.40;;
20230;SDS011;10274;49.022;9.338;2023-02-08T10:19:44;4.37;;;3.13;;
20230;SDS011;10274;49.022;9.338;2023-02-08T10:22:24;2.97;;;1.73;;
20230;SDS011;10274;49.022;9.338;2023-02-08T10:25:01;2.97;;;2.33;;
20230;SDS011;10274;49.022;9.338;2023-02-08T10:27:44;4.03;;;2.17;;
20230;SDS011;10274;49.022;9.338;2023-02-08T10:30:18;2.40;;;1.87;;
20230;SDS011;10274;49.022;9.338;2023-02-08T10:32:58;2.47;;;1.73;;
20230;SDS011;10274;49.022;9.338;2023-02-08T10:35:27;2.70;;;2.00;;
20230;SDS011;10274;49.022;9.338;2023-02-08T10:38:01;2.53;;;1.90;;
20230;SDS011;10274;49.022;9.338;2023-02-08T10:40:42;4.53;;;2.47;;
20230;SDS011;10274;49.022;9.338;2023-02-08T10:43:15;5.63;;;2.17;;
20230;SDS011;10274;49.022;9.338;2023-02-08T10:45:48;2.77;;;1.70;;
20230;SDS011;10274;49.022;9.338;2023-02-08T10:48:25;2.43;;;2.23;;
20230;SDS011;10274;49.022;9.338;2023-02-08T10:51:03;3.20;;;2.30;;
20230;SDS011;10274;49.022;9.338;2023-02-08T10:53:30;2.67;;;2.00;;
20230;SDS011;10274;49.022;9.338;2023-02-08T10:55:56;1.80;;;1.67;;
20230;SDS011;10274;49.022;9.338;2023-02-08T10:58:24;2.80;;;1.80;;
20230;SDS011;10274;49.022;9.338;2023-02-08T11:00:51;2.83;;;1.53;;
20230;SDS011;10274;49.022;9.338;2023-02-08T11:03:21;1.97;;;1.70;;
20230;SDS011;10274;49.022;9.338;2023-02-08T11:05:50;1.90;;;1.70;;
20230;SDS011;10274;49.022;9.338;2023-02-08T11:08:18;1.73;;;1.40;;
20230;SDS011;10274;49.022;9.338;2023-02-08T11:10:54;2.20;;;1.73;;
20230;SDS011;10274;49.022;9.338;2023-02-08T11:13:23;2.17;;;1.37;;
20230;SDS011;10274;49.022;9.338;2023-02-08T11:15:56;2.27;;;1.83;;
20230;SDS011;10274;49.022;9.338;2023-02-08T11:18:27;1.77;;;1.27;;
20230;SDS011;10274;49.022;9.338;2023-02-08T11:20:56;2.00;;;1.63;;
20230;SDS011;10274;49.022;9.338;2023-02-08T11:23:25;2.47;;;1.50;;
20230;SDS011;10274;49.022;9.338;2023-02-08T11:25:55;1.70;;;1.57;;
20230;SDS011;10274;49.022;9.338;2023-02-08T11:28:39;2.67;;;1.37;;
20230;SDS011;10274;49.022;9.338;2023-02-08T11:31:08;2.27;;;1.87;;
20230;SDS011;10274;49.022;9.338;2023-02-08T11:33:56;2.37;;;1.77;;
20230;SDS011;10274;49.022;9.338;2023-02-08T11:36:27;2.03;;;1.40;;
20230;SDS011;10274;49.022;9.338;2023-02-08T11:38:55;1.30;;;1.20;;
20230;SDS011;10274;49.022;9.338;2023-02-08T11:41:23;2.97;;;1.90;;
20230;SDS011;10274;49.022;9.338;2023-02-08T11:43:52;1.30;;;1.20;;
20230;SDS011;10274;49.022;9.338;2023-02-08T11:46:23;3.47;;;1.77;;
20230;SDS011;10274;49.022;9.338;2023-02-08T11:48:52;2.20;;;1.50;;
20230;SDS011;10274;49.022;9.338;2023-02-08T11:51:24;3.20;;;1.73;;
20230;SDS011;10274;49.022;9.338;2023-02-08T11:53:53;2.10;;;1.67;;
20230;SDS011;10274;49.022;9.338;2023-02-08T11:56:21;2.70;;;1.90;;
20230;SDS011;10274;49.022;9.338;2023-02-08T11:58:59;2.23;;;1.57;;
20230;SDS011;10274;49.022;9.338;2023-02-08T12:01:29;1.07;;;0.77;;
20230;SDS011;10274;49.022;9.338;2023-02-08T12:04:00;2.40;;;1.63;;
20230;SDS011;10274;49.022;9.338;2023-02-08T12:06:36;0.90;;;0.70;;
20230;SDS011;10274;49.022;9.338;2023-02-08T12:09:35;1.80;;;1.40;;
20230;SDS011;10274;49.022;9.338;2023-02-08T12:12:26;2.30;;;1.37;;
20230;SDS011;10274;49.022;9.338;2023-02-08T12:15:01;3.30;;;1.67;;
20230;SDS011;10274;49.022;9.338;2023-02-08T12:17:43;3.53;;;1.63;;
20230;SDS011;10274;49.022;9.338;2023-02-08T12:20:30;1.53;;;0.70;;
20230;SDS011;10274;49.022;9.338;2023-02-08T12:23:08;2.47;;;1.07;;
20230;SDS011;10274;49.022;9.338;2023-02-08T12:25:47;1.93;;;1.33;;
20230;SDS011;10274;49.022;9.338;2023-02-08T12:28:23;1.67;;;1.57;;
20230;SDS011;10274;49.022;9.338;2023-02-08T12:31:00;2.27;;;1.60;;
20230;SDS011;10274;49.022;9.338;2023-02-08T12:33:36;1.27;;;1.10;;
20230;SDS011;10274;49.022;9.338;2023-02-08T12:36:21;2.20;;;1.40;;
20230;SDS011;10274;49.022;9.338;2023-02-08T12:39:14;1.30;;;1.20;;
20230;SDS011;10274;49.022;9.338;2023-02-08T12:45:05;2.53;;;1.40;;
20230;SDS011;10274;49.022;9.338;2023-02-08T12:47:48;1.63;;;1.30;;
20230;SDS011;10274;49.022;9.338;2023-02-08T12:50:26;2.10;;;1.50;;
20230;SDS011;10274;49.022;9.338;2023-02-08T12:53:00;1.80;;;1.40;;
20230;SDS011;10274;49.022;9.338;2023-02-08T12:55:33;1.23;;;1.13;;
20230;SDS011;10274;49.022;9.338;2023-02-08T12:58:13;3.20;;;1.57;;
20230;SDS011;10274;49.022;9.338;2023-02-08T13:00:49;1.43;;;1.17;;
20230;SDS011;10274;49.022;9.338;2023-02-08T13:03:21;1.47;;;1.07;;
20230;SDS011;10274;49.022;9.338;2023-02-08T13:06:02;0.97;;;0.87;;
20230;SDS011;10274;49.022;9.338;2023-02-08T13:08:33;1.80;;;0.93;;
20230;SDS011;10274;49.022;9.338;2023-02-08T13:11:08;1.30;;;1.20;;
20230;SDS011;10274;49.022;9.338;2023-02-08T13:13:39;2.10;;;1.40;;
20230;SDS011;10274;49.022;9.338;2023-02-08T13:16:11;1.57;;;1.10;;
20230;SDS011;10274;49.022;9.338;2023-02-08T13:18:43;2.07;;;1.20;;
20230;SDS011;10274;49.022;9.338;2023-02-08T13:21:15;2.17;;;1.60;;
20230;SDS011;10274;49.022;9.338;2023-02-08T13:23:48;2.53;;;1.43;;
20230;SDS011;10274;49.022;9.338;2023-02-08T13:26:16;2.13;;;1.20;;
20230;SDS011;10274;49.022;9.338;2023-02-08T13:28:49;1.40;;;1.23;;
20230;SDS011;10274;49.022;9.338;2023-02-08T13:31:17;2.33;;;1.20;;
20230;SDS011;10274;49.022;9.338;2023-02-08T13:33:48;1.77;;;1.30;;
20230;SDS011;10274;49.022;9.338;2023-02-08T13:36:18;2.00;;;1.50;;
20230;SDS011;10274;49.022;9.338;2023-02-08T13:38:56;1.40;;;1.20;;
20230;SDS011;10274;49.022;9.338;2023-02-08T13:41:24;3.03;;;1.63;;
20230;SDS011;10274;49.022;9.338;2023-02-08T13:43:53;2.73;;;2.03;;
20230;SDS011;10274;49.022;9.338;2023-02-08T13:46:23;1.80;;;1.30;;
20230;SDS011;10274;49.022;9.338;2023-02-08T13:48:54;3.97;;;2.00;;
20230;SDS011;10274;49.022;9.338;2023-02-08T13:54:18;2.97;;;1.70;;
20230;SDS011;10274;49.022;9.338;2023-02-08T13:56:46;3.83;;;2.57;;
20230;SDS011;10274;49.022;9.338;2023-02-08T13:59:23;2.40;;;2.20;;
20230;SDS011;10274;49.022;9.338;2023-02-08T14:02:17;4.00;;;2.00;;
20230;SDS011;10274;49.022;9.338;2023-02-08T14:04:48;2.90;;;2.00;;
20230;SDS011;10274;49.022;9.338;2023-02-08T14:07:19;5.40;;;2.80;;
20230;SDS011;10274;49.022;9.338;2023-02-08T14:10:02;2.93;;;2.40;;
20230;SDS011;10274;49.022;9.338;2023-02-08T14:12:35;2.70;;;2.23;;
20230;SDS011;10274;49.022;9.338;2023-02-08T14:15:14;2.87;;;2.03;;
20230;SDS011;10274;49.022;9.338;2023-02-08T14:17:50;2.27;;;1.87;;
20230;SDS011;10274;49.022;9.338;2023-02-08T14:20:20;3.40;;;2.27;;
20230;SDS011;10274;49.022;9.338;2023-02-08T14:22:51;2.23;;;1.73;;
20230;SDS011;10274;49.022;9.338;2023-02-08T14:25:21;2.37;;;1.83;;
20230;SDS011;10274;49.022;9.338;2023-02-08T14:27:51;4.57;;;2.43;;
20230;SDS011;10274;49.022;9.338;2023-02-08T14:30:22;3.10;;;2.10;;
20230;SDS011;10274;49.022;9.338;2023-02-08T14:32:52;3.37;;;2.27;;
20230;SDS011;10274;49.022;9.338;2023-02-08T14:35:33;2.87;;;2.20;;
20230;SDS011;10274;49.022;9.338;2023-02-08T14:50:17;2.03;;;1.57;;
20230;SDS011;10274;49.022;9.338;2023-02-08T14:52:48;2.70;;;2.00;;
20230;SDS011;10274;49.022;9.338;2023-02-08T14:55:20;2.90;;;2.13;;
20230;SDS011;10274;49.022;9.338;2023-02-08T14:57:53;2.50;;;2.07;;
20230;SDS011;10274;49.022;9.338;2023-02-08T15:00:21;2.30;;;2.20;;
20230;SDS011;10274;49.022;9.338;2023-02-08T15:02:50;2.80;;;1.63;;
20230;SDS011;10274;49.022;9.338;2023-02-08T15:05:19;2.10;;;1.87;;
20230;SDS011;10274;49.022;9.338;2023-02-08T15:07:48;1.93;;;1.53;;
20230;SDS011;10274;49.022;9.338;2023-02-08T15:10:17;2.93;;;2.03;;
20230;SDS011;10274;49.022;9.338;2023-02-08T15:12:46;4.13;;;2.43;;
20230;SDS011;10274;49.022;9.338;2023-02-08T15:15:22;2.93;;;1.73;;
20230;SDS011;10274;49.022;9.338;2023-02-08T15:17:51;2.57;;;2.37;;
20230;SDS011;10274;49.022;9.338;2023-02-08T15:20:20;2.60;;;1.90;;
20230;SDS011;10274;49.022;9.338;2023-02-08T15:22:55;2.60;;;2.10;;
20230;SDS011;10274;49.022;9.338;2023-02-08T15:25:26;2.50;;;2.30;;
20230;SDS011;10274;49.022;9.338;2023-02-08T15:27:55;2.53;;;1.80;;
20230;SDS011;10274;49.022;9.338;2023-02-08T15:30:26;2.27;;;1.93;;